Terminal Aerodrome Forecast
Issued by NWS

Home | Current Version | Previous Version | Text Only | Print | Product List | Glossary On
Versions: 1 2 3 4 5 6 7 8 9 10 11 12 13 14 15 16 17 18 19 20
000
FTUS44 KMAF 290920 AAA
TAFCNM
TAF AMD
KCNM 290920Z 2909/3006 03005KT P6SM VCTS SCT070CB SCT250
      TEMPO 2909/2913 VRB15G25KT
     FM291600 11009G19KT P6SM SCT040 SCT250
     FM300200 14006KT P6SM SCT200=

USA.gov is the U.S. government's official web portal to all federal, state and local government web resources and services.